createdAt,value
2016-06-25T00:00:03.687Z,62285.5
2016-06-25T00:00:13.790Z,52920.7
2016-06-25T00:00:23.696Z,62285.5
2016-06-25T00:00:33.709Z,62285.5
2016-06-25T00:00:42.550Z,63050.5
2016-06-25T00:00:53.756Z,65345.6
2016-06-25T00:01:03.738Z,66110.8
2016-06-25T00:01:13.755Z,67067.4
2016-06-25T00:01:23.746Z,69554.9
2016-06-25T00:01:33.790Z,71277.4
2016-06-25T00:01:43.843Z,72234.5
2016-06-25T00:01:52.567Z,72234.5
2016-06-25T00:02:02.583Z,73191.6
2016-06-25T00:02:13.832Z,74148.8
2016-06-25T00:02:22.610Z,59417.6
2016-06-25T00:02:33.781Z,77212.6
2016-06-25T00:02:43.811Z,80468.7
2016-06-25T00:02:53.827Z,85258.8
2016-06-25T00:03:03.811Z,86600.4
2016-06-25T00:03:13.809Z,89284
2016-06-25T00:03:23.849Z,90625.9
2016-06-25T00:03:33.836Z,90625.9
2016-06-25T00:03:42.641Z,93502.1
2016-06-25T00:03:53.861Z,96570.7
2016-06-25T00:04:02.652Z,99831.9
2016-06-25T00:04:13.859Z,101366.7
2016-06-25T00:04:23.890Z,103093.6
2016-06-25T00:04:33.880Z,108659.6
2016-06-25T00:04:43.889Z,112691.4
2016-06-25T00:04:53.884Z,114803.7
2016-06-25T00:05:03.913Z,114803.7
2016-06-25T00:05:12.699Z,114803.7
2016-06-25T00:05:23.894Z,117108.4
2016-06-25T00:05:32.719Z,119221.2
2016-06-25T00:05:43.953Z,121718.5
2016-06-25T00:05:53.935Z,121718.5
2016-06-25T00:06:03.945Z,124024.1
2016-06-25T00:06:13.932Z,124024.1
2016-06-25T00:06:23.964Z,126522.1
2016-06-25T00:06:33.947Z,126522.1
2016-06-25T00:06:43.953Z,126522.1
2016-06-25T00:06:51.561Z,126522.1
2016-06-25T00:07:04.015Z,126522.1
2016-06-25T00:07:13.981Z,126522.1
2016-06-25T00:07:23.989Z,129212.6
2016-06-25T00:07:33.973Z,129212.6
2016-06-25T00:07:43.993Z,129212.6
2016-06-25T00:07:54.017Z,131903.6
2016-06-25T00:08:04.049Z,131903.6
2016-06-25T00:08:14.043Z,131903.6
2016-06-25T00:08:24.030Z,129212.6
2016-06-25T00:08:34.032Z,129212.6
2016-06-25T00:08:42.835Z,129212.6
2016-06-25T00:08:54.047Z,129212.6
2016-06-25T00:09:04.050Z,129212.6
2016-06-25T00:09:14.065Z,131903.6
2016-06-25T00:09:22.872Z,131903.6
2016-06-25T00:09:34.066Z,85642.1
2016-06-25T00:09:44.085Z,85642.1
2016-06-25T00:09:54.077Z,86983.7
2016-06-25T00:10:04.104Z,134787.2
2016-06-25T00:10:14.197Z,134787.2
2016-06-25T00:10:24.133Z,137671.3
2016-06-25T00:10:34.106Z,140747.9
2016-06-25T00:10:44.142Z,140747.9
2016-06-25T00:10:54.185Z,137671.3
2016-06-25T00:11:04.136Z,137671.3
2016-06-25T00:11:14.136Z,140747.9
2016-06-25T00:11:22.990Z,140747.9
2016-06-25T00:11:34.197Z,140747.9
2016-06-25T00:11:44.160Z,140747.9
2016-06-25T00:11:54.152Z,140747.9
2016-06-25T00:12:02.966Z,143825.2
2016-06-25T00:12:14.192Z,140747.9
2016-06-25T00:12:24.210Z,140747.9
2016-06-25T00:12:34.189Z,143825.2
2016-06-25T00:12:44.202Z,143825.2
2016-06-25T00:12:53.005Z,143825.2
2016-06-25T00:13:04.239Z,143825.2
2016-06-25T00:13:14.249Z,143825.2
2016-06-25T00:13:24.265Z,147095.1
2016-06-25T00:13:34.246Z,147095.1
2016-06-25T00:13:44.247Z,147095.1
2016-06-25T00:13:54.248Z,147095.1
2016-06-25T00:14:04.246Z,147095.1
2016-06-25T00:14:14.297Z,147095.1
2016-06-25T00:14:24.264Z,93502.1
2016-06-25T00:14:34.286Z,150558
2016-06-25T00:14:44.299Z,150558
2016-06-25T00:14:51.906Z,150558
2016-06-25T00:15:03.101Z,93502.1
2016-06-25T00:15:14.311Z,147095.1
2016-06-25T00:15:23.122Z,150558
2016-06-25T00:15:34.307Z,147095.1
2016-06-25T00:15:44.337Z,147095.1
2016-06-25T00:15:54.354Z,147095.1
2016-06-25T00:16:04.336Z,143825.2
2016-06-25T00:16:14.348Z,143825.2
2016-06-25T00:16:23.156Z,143825.2
2016-06-25T00:16:34.420Z,143825.2
2016-06-25T00:16:44.402Z,143825.2
2016-06-25T00:16:54.368Z,140747.9
2016-06-25T00:17:03.202Z,137671.3
2016-06-25T00:17:14.381Z,134787.2
2016-06-25T00:17:24.406Z,134787.2
2016-06-25T00:17:34.408Z,137671.3
2016-06-25T00:17:43.242Z,134787.2
2016-06-25T00:17:53.284Z,134787.2
2016-06-25T00:18:04.457Z,134787.2
2016-06-25T00:18:14.417Z,137671.3
2016-06-25T00:18:23.235Z,140747.9
2016-06-25T00:18:34.452Z,140747.9
2016-06-25T00:18:44.462Z,140747.9
2016-06-25T00:18:53.254Z,89475.7
2016-06-25T00:19:03.255Z,89475.7
2016-06-25T00:19:14.480Z,140747.9
2016-06-25T00:19:24.495Z,137671.3
2016-06-25T00:19:34.487Z,137671.3
2016-06-25T00:19:44.478Z,137671.3
2016-06-25T00:19:54.493Z,137671.3
2016-06-25T00:20:04.508Z,140747.9
2016-06-25T00:20:13.346Z,140747.9
2016-06-25T00:20:24.544Z,140747.9
2016-06-25T00:20:34.527Z,140747.9
2016-06-25T00:20:44.524Z,140747.9
2016-06-25T00:20:53.353Z,140747.9
2016-06-25T00:21:03.368Z,140747.9
2016-06-25T00:21:14.560Z,140747.9
2016-06-25T00:21:24.569Z,140747.9
2016-06-25T00:21:34.565Z,143825.2
2016-06-25T00:21:44.553Z,143825.2
2016-06-25T00:21:54.666Z,140747.9
2016-06-25T00:22:04.605Z,140747.9
2016-06-25T00:22:14.607Z,140747.9
2016-06-25T00:22:24.619Z,140747.9
2016-06-25T00:22:34.662Z,140747.9
2016-06-25T00:22:43.456Z,140747.9
2016-06-25T00:22:54.624Z,137671.3
2016-06-25T00:23:04.702Z,140747.9
2016-06-25T00:23:14.626Z,140747.9
2016-06-25T00:23:23.434Z,140747.9
2016-06-25T00:23:34.666Z,143825.2
2016-06-25T00:23:44.675Z,143825.2
2016-06-25T00:23:54.666Z,143825.2
2016-06-25T00:24:04.660Z,140747.9
2016-06-25T00:24:14.672Z,140747.9
2016-06-25T00:24:23.486Z,143825.2
2016-06-25T00:24:34.692Z,147095.1
2016-06-25T00:24:44.713Z,147095.1
2016-06-25T00:24:54.710Z,143825.2
2016-06-25T00:25:03.606Z,90817.7
2016-06-25T00:25:14.751Z,143825.2
2016-06-25T00:25:24.710Z,143825.2
2016-06-25T00:25:34.737Z,143825.2
2016-06-25T00:25:44.755Z,143825.2
2016-06-25T00:25:53.542Z,143825.2
2016-06-25T00:26:04.743Z,92159.8
2016-06-25T00:26:14.752Z,147095.1
2016-06-25T00:26:24.757Z,147095.1
2016-06-25T00:26:34.767Z,147095.1
2016-06-25T00:26:44.764Z,143825.2
2016-06-25T00:26:54.781Z,147095.1
2016-06-25T00:27:02.402Z,147095.1
2016-06-25T00:27:14.814Z,143825.2
2016-06-25T00:27:24.817Z,143825.2
2016-06-25T00:27:34.831Z,143825.2
2016-06-25T00:27:43.603Z,143825.2
2016-06-25T00:27:54.822Z,143825.2
2016-06-25T00:28:04.825Z,143825.2
2016-06-25T00:28:13.626Z,140747.9
2016-06-25T00:28:24.921Z,90817.7
2016-06-25T00:28:34.844Z,140747.9
2016-06-25T00:28:44.872Z,140747.9
2016-06-25T00:28:54.900Z,140747.9
2016-06-25T00:29:04.904Z,88133.8
2016-06-25T00:29:14.858Z,134787.2
2016-06-25T00:29:24.892Z,137671.3
2016-06-25T00:29:33.691Z,140747.9
2016-06-25T00:29:43.708Z,143825.2
2016-06-25T00:29:54.932Z,143825.2
2016-06-25T00:30:04.961Z,147095.1
2016-06-25T00:30:14.907Z,150558
2016-06-25T00:30:24.945Z,150558
2016-06-25T00:30:34.942Z,150558
2016-06-25T00:30:44.997Z,150558
2016-06-25T00:30:54.945Z,154214.1
2016-06-25T00:31:04.969Z,154214.1
2016-06-25T00:31:14.955Z,154214.1
2016-06-25T00:31:23.775Z,154214.1
2016-06-25T00:31:34.966Z,158063
2016-06-25T00:31:44.996Z,161912.7
2016-06-25T00:31:53.795Z,158063
2016-06-25T00:32:03.837Z,154214.1
2016-06-25T00:32:13.804Z,158063
2016-06-25T00:32:25.006Z,150558
2016-06-25T00:32:33.810Z,150558
2016-06-25T00:32:45.050Z,147095.1
2016-06-25T00:32:55.063Z,93502.1
2016-06-25T00:33:05.049Z,93502.1
2016-06-25T00:33:15.039Z,93502.1
2016-06-25T00:33:23.847Z,147095.1
2016-06-25T00:33:35.066Z,147095.1
2016-06-25T00:33:45.068Z,143825.2
2016-06-25T00:33:55.070Z,143825.2
2016-06-25T00:34:15.313Z,143825.2
2016-06-25T00:34:25.084Z,150558
2016-06-25T00:34:35.088Z,154214.1
2016-06-25T00:34:45.111Z,154214.1
2016-06-25T00:34:55.139Z,154214.1
2016-06-25T00:35:03.981Z,158063
2016-06-25T00:35:15.366Z,158063
2016-06-25T00:35:23.961Z,158063
2016-06-25T00:35:35.138Z,154214.1
2016-06-25T00:35:45.152Z,154214.1
2016-06-25T00:35:55.187Z,161912.7
2016-06-25T00:36:02.769Z,166148.1
2016-06-25T00:36:15.185Z,175006.1
2016-06-25T00:36:25.183Z,175006.1
2016-06-25T00:36:35.187Z,179821.7
2016-06-25T00:36:45.179Z,184830.7
2016-06-25T00:36:55.268Z,184830.7
2016-06-25T00:37:05.202Z,184830.7
2016-06-25T00:37:15.236Z,184830.7
2016-06-25T00:37:25.214Z,184830.7
2016-06-25T00:37:34.046Z,184830.7
2016-06-25T00:37:44.054Z,184830.7
2016-06-25T00:38:05.269Z,184830.7
2016-06-25T00:38:15.279Z,190226.3
2016-06-25T00:38:24.059Z,184830.7
2016-06-25T00:38:34.066Z,184830.7
2016-06-25T00:38:45.297Z,184830.7
2016-06-25T00:38:55.266Z,184830.7
2016-06-25T00:39:15.307Z,190226.3
2016-06-25T00:39:35.310Z,184830.7
2016-06-25T00:39:45.309Z,184830.7
2016-06-25T00:39:55.347Z,184830.7
2016-06-25T00:40:04.119Z,184830.7
2016-06-25T00:40:15.331Z,184830.7
2016-06-25T00:40:25.339Z,184830.7
2016-06-25T00:40:35.351Z,184830.7
2016-06-25T00:40:45.334Z,190226.3
2016-06-25T00:40:55.351Z,190226.3
2016-06-25T00:41:05.577Z,190226.3
2016-06-25T00:41:15.363Z,190226.3
2016-06-25T00:41:25.378Z,190226.3
2016-06-25T00:41:35.367Z,190226.3
2016-06-25T00:41:44.198Z,190226.3
2016-06-25T00:41:55.414Z,184830.7
2016-06-25T00:42:14.212Z,184830.7
2016-06-25T00:42:24.259Z,184830.7
2016-06-25T00:42:34.210Z,184830.7
2016-06-25T00:42:45.421Z,184830.7
2016-06-25T00:42:55.436Z,190226.3
2016-06-25T00:43:05.563Z,190226.3
2016-06-25T00:43:15.455Z,190226.3
2016-06-25T00:43:25.466Z,190226.3
2016-06-25T00:43:34.281Z,190226.3
2016-06-25T00:43:45.526Z,184830.7
2016-06-25T00:43:54.282Z,184830.7
2016-06-25T00:44:04.278Z,184830.7
2016-06-25T00:44:15.507Z,184830.7
2016-06-25T00:44:25.548Z,184830.7
2016-06-25T00:44:35.504Z,184830.7
2016-06-25T00:44:45.507Z,184830.7
2016-06-25T00:44:54.345Z,184830.7
2016-06-25T00:45:05.573Z,184830.7
2016-06-25T00:45:15.538Z,184830.7
2016-06-25T00:45:25.544Z,184830.7
2016-06-25T00:45:35.547Z,184830.7
2016-06-25T00:45:45.557Z,179821.7
2016-06-25T00:45:55.563Z,179821.7
2016-06-25T00:46:05.562Z,104628.9
2016-06-25T00:46:15.576Z,175006.1
2016-06-25T00:46:25.593Z,179821.7
2016-06-25T00:46:35.606Z,179821.7
2016-06-25T00:46:45.588Z,179821.7
2016-06-25T00:46:55.600Z,179821.7
2016-06-25T00:47:15.601Z,179821.7
2016-06-25T00:47:25.634Z,179821.7
2016-06-25T00:47:35.652Z,175006.1
2016-06-25T00:47:44.452Z,170384.2
2016-06-25T00:47:54.435Z,166148.1
2016-06-25T00:48:05.645Z,166148.1
2016-06-25T00:48:15.673Z,161912.7
2016-06-25T00:48:25.678Z,161912.7
2016-06-25T00:48:35.694Z,161912.7
2016-06-25T00:48:45.670Z,161912.7
2016-06-25T00:48:55.667Z,161912.7
2016-06-25T00:49:04.879Z,161912.7
2016-06-25T00:49:15.734Z,161912.7
2016-06-25T00:49:25.699Z,166148.1
2016-06-25T00:49:35.715Z,161912.7
2016-06-25T00:49:44.511Z,161912.7
2016-06-25T00:49:55.762Z,161912.7
2016-06-25T00:50:05.727Z,161912.7
2016-06-25T00:50:15.818Z,166148.1
2016-06-25T00:50:25.735Z,96762.5
2016-06-25T00:50:35.840Z,166148.1
2016-06-25T00:50:45.763Z,170384.2
2016-06-25T00:50:54.554Z,101174.8
2016-06-25T00:51:05.771Z,166148.1
2016-06-25T00:51:15.793Z,166148.1
2016-06-25T00:51:25.839Z,166148.1
2016-06-25T00:51:34.585Z,166148.1
2016-06-25T00:51:45.793Z,166148.1
2016-06-25T00:51:55.811Z,166148.1
2016-06-25T00:52:05.804Z,166148.1
2016-06-25T00:52:15.879Z,161912.7
2016-06-25T00:52:25.834Z,161912.7
2016-06-25T00:52:35.829Z,166148.1
2016-06-25T00:52:45.848Z,166148.1
2016-06-25T00:52:55.853Z,161912.7
2016-06-25T00:53:05.844Z,161912.7
2016-06-25T00:53:15.855Z,161912.7
2016-06-25T00:53:24.683Z,161912.7
2016-06-25T00:53:35.913Z,158063
2016-06-25T00:53:45.870Z,158063
2016-06-25T00:53:55.897Z,154214.1
2016-06-25T00:54:05.908Z,158063
2016-06-25T00:54:14.712Z,158063
2016-06-25T00:54:25.995Z,158063
2016-06-25T00:54:35.944Z,161912.7
2016-06-25T00:54:45.920Z,161912.7
2016-06-25T00:54:54.750Z,161912.7
2016-06-25T00:55:04.750Z,161912.7
2016-06-25T00:55:15.959Z,158063
2016-06-25T00:55:25.942Z,96570.7
2016-06-25T00:55:35.954Z,96570.7
2016-06-25T00:55:55.991Z,166148.1
2016-06-25T00:56:16.006Z,161912.7
2016-06-25T00:56:25.987Z,161912.7
2016-06-25T00:56:35.982Z,161912.7
2016-06-25T00:56:46.003Z,161912.7
2016-06-25T00:56:56.030Z,161912.7
2016-06-25T00:57:06.038Z,161912.7
2016-06-25T00:57:16.020Z,161912.7
2016-06-25T00:57:26.045Z,166148.1
2016-06-25T00:57:34.883Z,166148.1
2016-06-25T00:57:46.036Z,170384.2
2016-06-25T00:57:54.858Z,166148.1
2016-06-25T00:58:06.068Z,170384.2
2016-06-25T00:58:16.291Z,170384.2
2016-06-25T00:58:26.071Z,170384.2
2016-06-25T00:58:36.065Z,166148.1
2016-06-25T00:58:44.903Z,166148.1
2016-06-25T00:58:56.080Z,166148.1
2016-06-25T00:59:06.107Z,101174.8
2016-06-25T00:59:16.105Z,101174.8
2016-06-25T00:59:24.915Z,175006.1
2016-06-25T00:59:46.165Z,179821.7
2016-06-25T00:59:56.139Z,179821.7
2016-06-25T01:00:06.147Z,184830.7
2016-06-25T01:00:16.150Z,184830.7
2016-06-25T01:00:24.970Z,184830.7
2016-06-25T01:00:36.180Z,184830.7
2016-06-25T01:00:46.171Z,184830.7
2016-06-25T01:00:56.245Z,184830.7
2016-06-25T01:01:06.190Z,190226.3
2016-06-25T01:01:16.182Z,184830.7
2016-06-25T01:01:26.203Z,184830.7
2016-06-25T01:01:35.034Z,184830.7
2016-06-25T01:01:46.255Z,184830.7
2016-06-25T01:01:56.219Z,184830.7
2016-06-25T01:02:06.222Z,184830.7
2016-06-25T01:02:16.247Z,179821.7
2016-06-25T01:02:26.245Z,184830.7
2016-06-25T01:02:36.229Z,184830.7
2016-06-25T01:02:46.239Z,184830.7
2016-06-25T01:02:56.264Z,179821.7
2016-06-25T01:03:05.057Z,179821.7
2016-06-25T01:03:15.056Z,179821.7
2016-06-25T01:03:26.288Z,179821.7
2016-06-25T01:03:36.319Z,175006.1
2016-06-25T01:03:46.279Z,175006.1
2016-06-25T01:03:56.283Z,170384.2
2016-06-25T01:04:06.294Z,170384.2
2016-06-25T01:04:16.321Z,166148.1
2016-06-25T01:04:26.320Z,170384.2
2016-06-25T01:04:35.127Z,170384.2
2016-06-25T01:04:46.330Z,170384.2
2016-06-25T01:04:56.329Z,170384.2
2016-06-25T01:05:06.359Z,175006.1
2016-06-25T01:05:16.362Z,170384.2
2016-06-25T01:05:26.351Z,170384.2
2016-06-25T01:05:36.368Z,175006.1
2016-06-25T01:05:46.378Z,170384.2
2016-06-25T01:05:56.378Z,175006.1
2016-06-25T01:06:06.389Z,175006.1
2016-06-25T01:06:16.394Z,175006.1
2016-06-25T01:06:26.430Z,175006.1
2016-06-25T01:06:36.398Z,170384.2
2016-06-25T01:06:46.511Z,175006.1
2016-06-25T01:06:56.418Z,175006.1
2016-06-25T01:07:05.221Z,175006.1
2016-06-25T01:07:16.471Z,175006.1
2016-06-25T01:07:36.459Z,170384.2
2016-06-25T01:07:46.456Z,170384.2
2016-06-25T01:07:56.448Z,166148.1
2016-06-25T01:08:05.286Z,166148.1
2016-06-25T01:08:14.077Z,99640
2016-06-25T01:08:26.492Z,161912.7
2016-06-25T01:08:36.484Z,158063
2016-06-25T01:08:46.534Z,158063
2016-06-25T01:08:55.292Z,154214.1
2016-06-25T01:09:06.493Z,154214.1
2016-06-25T01:09:16.508Z,154214.1
2016-06-25T01:09:26.506Z,158063
2016-06-25T01:09:35.317Z,158063
2016-06-25T01:09:44.147Z,158063
2016-06-25T01:09:55.347Z,158063
2016-06-25T01:10:06.548Z,96570.7
2016-06-25T01:10:16.547Z,154214.1
2016-06-25T01:10:26.558Z,154214.1
2016-06-25T01:10:35.413Z,154214.1
2016-06-25T01:10:46.601Z,150558
2016-06-25T01:10:56.567Z,150558
2016-06-25T01:11:06.580Z,150558
2016-06-25T01:11:15.399Z,154214.1
2016-06-25T01:11:26.603Z,154214.1
2016-06-25T01:11:36.602Z,154214.1
2016-06-25T01:11:45.417Z,154214.1
2016-06-25T01:11:56.850Z,154214.1
2016-06-25T01:12:06.618Z,154214.1
2016-06-25T01:12:16.635Z,154214.1
2016-06-25T01:12:26.657Z,150558
2016-06-25T01:12:36.695Z,150558
2016-06-25T01:12:46.665Z,150558
2016-06-25T01:12:55.454Z,150558
2016-06-25T01:13:05.463Z,150558
2016-06-25T01:13:16.689Z,150558
2016-06-25T01:13:26.708Z,150558
2016-06-25T01:13:36.681Z,150558
2016-06-25T01:13:46.702Z,150558
2016-06-25T01:13:56.727Z,150558
2016-06-25T01:14:06.709Z,150558
2016-06-25T01:14:16.711Z,150558
2016-06-25T01:14:26.717Z,150558
2016-06-25T01:14:36.788Z,154214.1
2016-06-25T01:14:45.548Z,95036.3
2016-06-25T01:14:56.736Z,154214.1
2016-06-25T01:15:06.754Z,154214.1
2016-06-25T01:15:16.758Z,154214.1
2016-06-25T01:15:26.762Z,150558
2016-06-25T01:15:36.761Z,150558
2016-06-25T01:15:46.804Z,150558
2016-06-25T01:15:56.773Z,147095.1
2016-06-25T01:16:06.811Z,147095.1
2016-06-25T01:16:16.797Z,147095.1
2016-06-25T01:16:25.606Z,147095.1
2016-06-25T01:16:37.033Z,147095.1
2016-06-25T01:16:45.630Z,143825.2
2016-06-25T01:16:55.626Z,143825.2
2016-06-25T01:17:05.621Z,140747.9
2016-06-25T01:17:16.838Z,140747.9
2016-06-25T01:17:26.858Z,140747.9
2016-06-25T01:17:36.862Z,137671.3
2016-06-25T01:17:46.859Z,137671.3
2016-06-25T01:17:56.864Z,137671.3
2016-06-25T01:18:06.859Z,137671.3
2016-06-25T01:18:16.890Z,137671.3
2016-06-25T01:18:26.871Z,137671.3
2016-06-25T01:18:36.914Z,137671.3
2016-06-25T01:18:45.763Z,134787.2
2016-06-25T01:18:56.891Z,88133.8
2016-06-25T01:19:07.119Z,88133.8
2016-06-25T01:19:15.713Z,134787.2
2016-06-25T01:19:26.917Z,134787.2
2016-06-25T01:19:35.741Z,137671.3
2016-06-25T01:19:47.159Z,134787.2
2016-06-25T01:19:56.926Z,134787.2
2016-06-25T01:20:06.934Z,134787.2
2016-06-25T01:20:16.950Z,134787.2
2016-06-25T01:20:27.049Z,137671.3
2016-06-25T01:20:36.959Z,134787.2
2016-06-25T01:20:46.988Z,137671.3
2016-06-25T01:20:56.980Z,134787.2
2016-06-25T01:21:07.003Z,134787.2
2016-06-25T01:21:17.034Z,134787.2
2016-06-25T01:21:27.034Z,131903.6
2016-06-25T01:21:37.014Z,131903.6
2016-06-25T01:21:47.067Z,134787.2
2016-06-25T01:21:55.853Z,134787.2
2016-06-25T01:22:07.029Z,134787.2
2016-06-25T01:22:17.055Z,134787.2
2016-06-25T01:22:27.047Z,134787.2
2016-06-25T01:22:35.877Z,134787.2
2016-06-25T01:22:47.072Z,134787.2
2016-06-25T01:22:57.076Z,88133.8
2016-06-25T01:23:05.882Z,134787.2
2016-06-25T01:23:27.102Z,131903.6
2016-06-25T01:23:37.108Z,134787.2
2016-06-25T01:23:45.886Z,134787.2
2016-06-25T01:23:57.104Z,134787.2
2016-06-25T01:24:07.130Z,131903.6
2016-06-25T01:24:17.120Z,131903.6
2016-06-25T01:24:27.111Z,131903.6
2016-06-25T01:24:35.960Z,131903.6
2016-06-25T01:24:47.150Z,129212.6
2016-06-25T01:24:57.157Z,129212.6
2016-06-25T01:25:07.131Z,129212.6
2016-06-25T01:25:17.178Z,126522.1
2016-06-25T01:25:25.977Z,126522.1
2016-06-25T01:25:37.167Z,124024.1
2016-06-25T01:25:47.182Z,124024.1
2016-06-25T01:25:57.189Z,124024.1
2016-06-25T01:26:07.222Z,124024.1
2016-06-25T01:26:17.191Z,124024.1
2016-06-25T01:26:27.225Z,124024.1
2016-06-25T01:26:37.207Z,124024.1
2016-06-25T01:26:47.265Z,126522.1
2016-06-25T01:26:57.251Z,124024.1
2016-06-25T01:27:06.033Z,83342.6
2016-06-25T01:27:16.090Z,126522.1
2016-06-25T01:27:27.244Z,126522.1
2016-06-25T01:27:37.494Z,126522.1
2016-06-25T01:27:47.263Z,126522.1
2016-06-25T01:27:56.082Z,126522.1
2016-06-25T01:28:06.066Z,124024.1
2016-06-25T01:28:14.945Z,124024.1
2016-06-25T01:28:27.302Z,124024.1
2016-06-25T01:28:37.298Z,124024.1
2016-06-25T01:28:47.316Z,121718.5
2016-06-25T01:28:57.333Z,121718.5
2016-06-25T01:29:06.124Z,121718.5
2016-06-25T01:29:17.396Z,119221.2
2016-06-25T01:29:27.338Z,119221.2
2016-06-25T01:29:37.359Z,119221.2
2016-06-25T01:29:46.165Z,83150.9
2016-06-25T01:29:56.149Z,119221.2
2016-06-25T01:30:07.351Z,121718.5
2016-06-25T01:30:17.362Z,121718.5
2016-06-25T01:30:27.407Z,119221.2
2016-06-25T01:30:37.430Z,119221.2
2016-06-25T01:30:47.391Z,119221.2
2016-06-25T01:30:57.377Z,119221.2
2016-06-25T01:31:06.202Z,119221.2
2016-06-25T01:31:17.438Z,117108.4
2016-06-25T01:31:27.398Z,117108.4
2016-06-25T01:31:36.222Z,117108.4
2016-06-25T01:31:47.427Z,114803.7
2016-06-25T01:31:57.484Z,114803.7
2016-06-25T01:32:07.429Z,112691.4
2016-06-25T01:32:17.449Z,110771.5
2016-06-25T01:32:27.459Z,110771.5
2016-06-25T01:32:37.482Z,78744.8
2016-06-25T01:32:47.496Z,78744.8
2016-06-25T01:32:57.447Z,112691.4
2016-06-25T01:33:06.262Z,112691.4
2016-06-25T01:33:17.476Z,112691.4
2016-06-25T01:33:27.518Z,110771.5
2016-06-25T01:33:37.502Z,108659.6
2016-06-25T01:33:46.299Z,108659.6
2016-06-25T01:33:57.505Z,108659.6
2016-06-25T01:34:06.342Z,106740.1
2016-06-25T01:34:17.517Z,106740.1
2016-06-25T01:34:26.360Z,106740.1
2016-06-25T01:34:37.554Z,105012.7
2016-06-25T01:34:47.588Z,101366.7
2016-06-25T01:34:56.363Z,101366.7
2016-06-25T01:35:07.604Z,101366.7
2016-06-25T01:35:17.575Z,101366.7
2016-06-25T01:35:27.591Z,99831.9
2016-06-25T01:35:36.415Z,99831.9
2016-06-25T01:35:47.678Z,99831.9
2016-06-25T01:35:57.607Z,99831.9
2016-06-25T01:36:07.651Z,99831.9
2016-06-25T01:36:17.598Z,101366.7
2016-06-25T01:36:27.681Z,101366.7
2016-06-25T01:36:36.391Z,101366.7
2016-06-25T01:36:46.418Z,101366.7
2016-06-25T01:36:57.613Z,101366.7
2016-06-25T01:37:07.661Z,101366.7
2016-06-25T01:37:17.637Z,103093.6
2016-06-25T01:37:27.644Z,103093.6
2016-06-25T01:37:37.666Z,103093.6
2016-06-25T01:37:47.661Z,105012.7
2016-06-25T01:37:57.667Z,105012.7
2016-06-25T01:38:07.693Z,106740.1
2016-06-25T01:38:17.706Z,106740.1
2016-06-25T01:38:26.498Z,108659.6
2016-06-25T01:38:37.691Z,108659.6
2016-06-25T01:38:47.694Z,108659.6
2016-06-25T01:38:56.522Z,110771.5
2016-06-25T01:39:07.714Z,110771.5
2016-06-25T01:39:17.717Z,108659.6
2016-06-25T01:39:27.735Z,106740.1
2016-06-25T01:39:37.749Z,105012.7
2016-06-25T01:39:47.765Z,105012.7
2016-06-25T01:39:57.755Z,105012.7
2016-06-25T01:40:07.757Z,103093.6
2016-06-25T01:40:17.775Z,103093.6
2016-06-25T01:40:27.783Z,101366.7
2016-06-25T01:40:37.826Z,101366.7
2016-06-25T01:40:46.601Z,99831.9
2016-06-25T01:40:56.614Z,99831.9
2016-06-25T01:41:07.800Z,98105.2
2016-06-25T01:41:17.830Z,98105.2
2016-06-25T01:41:27.825Z,98105.2
2016-06-25T01:41:36.617Z,98105.2
2016-06-25T01:41:47.816Z,98105.2
2016-06-25T01:41:57.837Z,98105.2
2016-06-25T01:42:06.613Z,98105.2
2016-06-25T01:42:17.862Z,98105.2
2016-06-25T01:42:26.678Z,98105.2
2016-06-25T01:42:37.871Z,96570.7
2016-06-25T01:42:46.657Z,96570.7
2016-06-25T01:42:56.679Z,96570.7
2016-06-25T01:43:07.884Z,96570.7
2016-06-25T01:43:17.889Z,96570.7
2016-06-25T01:43:27.915Z,96570.7
2016-06-25T01:43:37.958Z,96570.7
2016-06-25T01:43:46.710Z,96570.7
2016-06-25T01:43:57.908Z,96570.7
2016-06-25T01:44:07.921Z,96570.7
2016-06-25T01:44:16.745Z,95036.3
2016-06-25T01:44:27.923Z,95036.3
2016-06-25T01:44:37.925Z,95036.3
2016-06-25T01:44:46.741Z,93502.1
2016-06-25T01:44:57.950Z,91968.1
2016-06-25T01:45:07.959Z,90625.9
2016-06-25T01:45:17.974Z,90625.9
2016-06-25T01:45:27.979Z,90625.9
2016-06-25T01:45:38.030Z,90625.9
2016-06-25T01:45:47.979Z,89284
2016-06-25T01:45:57.973Z,89284
2016-06-25T01:46:07.996Z,87942.1
2016-06-25T01:46:18.003Z,87942.1
2016-06-25T01:46:28.006Z,87942.1
2016-06-25T01:46:36.818Z,86600.4
2016-06-25T01:46:48.009Z,85258.8
2016-06-25T01:46:58.035Z,85258.8
2016-06-25T01:47:06.843Z,86600.4
2016-06-25T01:47:16.844Z,86600.4
2016-06-25T01:47:28.029Z,87942.1
2016-06-25T01:47:38.069Z,89284
2016-06-25T01:47:48.118Z,87942.1
2016-06-25T01:47:58.072Z,87942.1
2016-06-25T01:48:06.880Z,87942.1
2016-06-25T01:48:18.077Z,87942.1
2016-06-25T01:48:28.111Z,87942.1
2016-06-25T01:48:36.889Z,87942.1
2016-06-25T01:48:46.892Z,87942.1
2016-06-25T01:48:56.914Z,89284
2016-06-25T01:49:08.122Z,90625.9
2016-06-25T01:49:18.126Z,69363.5
2016-06-25T01:49:26.954Z,93502.1
2016-06-25T01:49:38.121Z,91968.1
2016-06-25T01:49:48.141Z,90625.9
2016-06-25T01:49:58.141Z,89284
2016-06-25T01:50:06.943Z,66876.1
2016-06-25T01:50:18.159Z,86600.4
2016-06-25T01:50:26.975Z,86600.4
2016-06-25T01:50:38.179Z,86600.4
2016-06-25T01:50:48.168Z,85258.8
2016-06-25T01:50:58.191Z,84109
2016-06-25T01:51:08.202Z,84109
2016-06-25T01:51:18.212Z,85258.8
2016-06-25T01:51:28.215Z,85258.8
2016-06-25T01:51:37.013Z,85258.8
2016-06-25T01:51:48.303Z,84109
2016-06-25T01:51:58.249Z,85258.8
2016-06-25T01:52:08.222Z,85258.8
2016-06-25T01:52:18.227Z,84109
2016-06-25T01:52:28.249Z,84109
2016-06-25T01:52:38.250Z,84109
2016-06-25T01:52:48.281Z,84109
2016-06-25T01:52:58.303Z,84109
2016-06-25T01:53:08.356Z,81618.2
2016-06-25T01:53:18.275Z,81618.2
2016-06-25T01:53:28.299Z,82767.7
2016-06-25T01:53:37.112Z,81618.2
2016-06-25T01:53:45.908Z,81618.2
2016-06-25T01:53:58.309Z,81618.2
2016-06-25T01:54:08.331Z,80468.7
2016-06-25T01:54:18.310Z,80468.7
2016-06-25T01:54:28.357Z,80468.7
2016-06-25T01:54:38.342Z,80468.7
2016-06-25T01:54:48.354Z,80468.7
2016-06-25T01:54:58.410Z,80468.7
2016-06-25T01:55:07.156Z,79319.4
2016-06-25T01:55:18.366Z,79319.4
2016-06-25T01:55:28.376Z,79319.4
2016-06-25T01:55:38.777Z,78361.7
2016-06-25T01:55:48.389Z,77212.6
2016-06-25T01:55:55.991Z,77212.6
2016-06-25T01:56:08.392Z,76255.1
2016-06-25T01:56:18.402Z,76255.1
2016-06-25T01:56:27.204Z,76255.1
2016-06-25T01:56:38.407Z,75106.1
2016-06-25T01:56:47.295Z,75106.1
2016-06-25T01:56:58.453Z,75106.1
2016-06-25T01:57:07.251Z,75106.1
2016-06-25T01:57:17.270Z,74148.8
2016-06-25T01:57:27.269Z,74148.8
2016-06-25T01:57:37.274Z,74148.8
2016-06-25T01:57:48.488Z,74148.8
2016-06-25T01:57:57.275Z,74148.8
2016-06-25T01:58:07.269Z,74148.8
2016-06-25T01:58:17.291Z,74148.8
2016-06-25T01:58:28.486Z,74148.8
2016-06-25T01:58:38.512Z,74148.8
2016-06-25T01:58:47.338Z,73191.6
2016-06-25T01:58:58.536Z,73191.6
2016-06-25T01:59:08.534Z,73191.6
2016-06-25T01:59:18.529Z,73191.6
2016-06-25T01:59:27.344Z,73191.6
2016-06-25T01:59:38.543Z,73191.6
2016-06-25T01:59:48.543Z,74148.8
2016-06-25T01:59:57.341Z,74148.8
2016-06-25T02:00:08.587Z,74148.8
2016-06-25T02:00:18.603Z,74148.8
2016-06-25T02:00:28.585Z,74148.8
2016-06-25T02:00:37.404Z,75106.1
2016-06-25T02:00:48.628Z,75106.1